createdAt,value
2022-10-11T00:01:05.699Z,18
2022-10-11T00:16:06.594Z,18
2022-10-11T00:31:05.878Z,14
2022-10-11T00:46:06.008Z,14
2022-10-11T01:01:05.516Z,13
2022-10-11T01:16:06.396Z,12
2022-10-11T01:31:05.711Z,17
2022-10-11T01:46:06.515Z,13
2022-10-11T02:01:05.869Z,9
2022-10-11T02:16:06.697Z,9
2022-10-11T02:31:05.322Z,9
2022-10-11T02:46:05.410Z,9
2022-10-11T03:01:05.009Z,11
2022-10-11T03:16:05.464Z,10
2022-10-11T03:31:05.043Z,11
2022-10-11T03:46:05.895Z,11
2022-10-11T04:01:05.393Z,11
2022-10-11T04:16:05.588Z,10
2022-10-11T04:31:05.266Z,12
2022-10-11T04:46:05.765Z,11
2022-10-11T05:01:05.213Z,16
2022-10-11T05:16:11.482Z,13
2022-10-11T05:31:04.958Z,16
2022-10-11T05:46:05.458Z,16
2022-10-11T06:01:04.924Z,35
2022-10-11T06:16:05.907Z,31
2022-10-11T06:31:05.462Z,23
2022-10-11T06:46:05.593Z,24
2022-10-11T07:01:06.110Z,22
2022-10-11T07:16:05.930Z,35
2022-10-11T07:31:05.493Z,23
2022-10-11T07:46:05.778Z,25
2022-10-11T08:01:05.705Z,21
2022-10-11T08:16:06.513Z,18
2022-10-11T08:31:05.043Z,20
2022-10-11T08:46:05.889Z,20
2022-10-11T09:01:05.705Z,19
2022-10-11T09:16:05.967Z,24
2022-10-11T09:31:05.400Z,27
2022-10-11T09:46:06.253Z,22
2022-10-11T10:01:08.498Z,23
2022-10-11T10:16:06.201Z,25
2022-10-11T10:31:05.459Z,21
2022-10-11T10:46:06.293Z,20
2022-10-11T11:01:05.392Z,18
2022-10-11T11:16:06.320Z,17
2022-10-11T11:31:05.657Z,11
2022-10-11T11:46:05.222Z,10
2022-10-11T12:01:06.033Z,11
2022-10-11T12:16:05.664Z,8
2022-10-11T12:31:05.658Z,8
2022-10-11T12:46:05.723Z,10
2022-10-11T13:01:05.607Z,7
2022-10-11T13:16:05.684Z,6
2022-10-11T13:31:05.952Z,11
2022-10-11T13:46:06.074Z,5
2022-10-11T14:01:05.645Z,7
2022-10-11T14:16:06.412Z,7
2022-10-11T14:31:05.647Z,10
2022-10-11T14:46:05.735Z,8
2022-10-11T15:01:05.135Z,6
2022-10-11T15:16:06.583Z,7
2022-10-11T15:31:05.487Z,9
2022-10-11T15:46:06.009Z,7
2022-10-11T16:01:06.253Z,10
2022-10-11T16:16:06.091Z,7
2022-10-11T16:31:05.112Z,8
2022-10-11T16:46:05.890Z,10
2022-10-11T17:01:05.597Z,20
2022-10-11T17:16:06.198Z,27
2022-10-11T17:31:06.262Z,36
2022-10-11T17:46:05.397Z,33
2022-10-11T18:01:06.676Z,34
2022-10-11T18:16:05.870Z,27
2022-10-11T18:31:13.595Z,28
2022-10-11T18:46:05.365Z,31
2022-10-11T19:01:05.709Z,38
2022-10-11T19:16:05.544Z,38
2022-10-11T19:31:06.129Z,47
2022-10-11T19:46:05.300Z,47
2022-10-11T20:01:05.426Z,41
2022-10-11T20:16:05.408Z,56
2022-10-11T20:31:05.388Z,65
2022-10-11T20:46:05.615Z,51
2022-10-11T21:01:05.405Z,39
2022-10-11T21:16:05.540Z,46
2022-10-11T21:31:05.826Z,49
2022-10-11T21:46:04.909Z,48
2022-10-11T22:01:05.077Z,34
2022-10-11T22:16:05.397Z,38
2022-10-11T22:31:05.417Z,42
2022-10-11T22:46:05.563Z,46
2022-10-11T23:01:05.905Z,48
2022-10-11T23:31:05.060Z,88
2022-10-11T23:46:05.130Z,80
